createdAt,value
2022-10-17T00:01:06.483Z,102297.95
2022-10-17T00:03:38.005Z,102303.02
2022-10-17T00:06:12.272Z,102310.17
2022-10-17T00:08:42.339Z,102308.58
2022-10-17T00:11:16.253Z,102304.88
2022-10-17T00:13:45.640Z,102300.11
2022-10-17T00:16:14.128Z,102299.58
2022-10-17T00:18:42.088Z,102301.46
2022-10-17T00:21:17.815Z,102305.64
2022-10-17T00:23:47.346Z,102311.02
2022-10-17T00:26:15.822Z,102310.46
2022-10-17T00:28:47.941Z,102308.67
2022-10-17T00:31:17.874Z,102309.16
2022-10-17T00:33:46.689Z,102308.25
2022-10-17T00:36:25.518Z,102306.29
2022-10-17T00:38:57.583Z,102307.09
2022-10-17T00:41:29.043Z,102312.66
2022-10-17T00:43:58.946Z,102313.52
2022-10-17T00:46:32.802Z,102312.80
2022-10-17T00:49:13.016Z,102314.88
2022-10-17T00:51:49.473Z,102311.53
2022-10-17T00:54:21.370Z,102308.88
2022-10-17T00:56:50.580Z,102312.52
2022-10-17T00:59:22.077Z,102315.46
2022-10-17T01:02:06.342Z,102324.69
2022-10-17T01:04:35.757Z,102325.85
2022-10-17T01:07:04.006Z,102319.86
2022-10-17T01:09:32.361Z,102312.14
2022-10-17T01:12:16.124Z,102313.15
2022-10-17T01:15:12.153Z,102322.02
2022-10-17T01:18:24.868Z,102323.71
2022-10-17T01:21:10.036Z,102327.98
2022-10-17T01:24:02.786Z,102338.40
2022-10-17T01:26:50.375Z,102342.02
2022-10-17T01:29:52.071Z,102336.56
2022-10-17T01:32:40.442Z,102339.48
2022-10-17T01:35:33.576Z,102339.11
2022-10-17T01:38:04.207Z,102342.20
2022-10-17T01:40:42.929Z,102342.89
2022-10-17T01:43:26.113Z,102347.92
2022-10-17T01:46:09.174Z,102359.06
2022-10-17T01:48:41.717Z,102366.52
2022-10-17T01:51:19.143Z,102382.73
2022-10-17T01:53:58.779Z,102386.01
2022-10-17T01:56:30.810Z,102369.73
2022-10-17T01:59:07.854Z,102356.11
2022-10-17T02:01:38.303Z,102359.23
2022-10-17T02:04:08.267Z,102365.33
2022-10-17T02:06:36.986Z,102373.88
2022-10-17T02:09:19.010Z,102379.96
2022-10-17T02:12:12.961Z,102382.36
2022-10-17T02:14:57.592Z,102386.98
2022-10-17T02:17:31.613Z,102389.57
2022-10-17T02:20:29.672Z,102381.34
2022-10-17T02:23:00.609Z,102386.33
2022-10-17T02:25:44.341Z,102398.89
2022-10-17T02:28:45.009Z,102393.58
2022-10-17T02:31:48.274Z,102390.38
2022-10-17T02:34:28.176Z,102399.91
2022-10-17T02:37:00.398Z,102408.95
2022-10-17T02:39:30.814Z,102410.70
2022-10-17T02:42:03.611Z,102410.88
2022-10-17T02:44:32.794Z,102410.31
2022-10-17T02:47:11.819Z,102416.42
2022-10-17T02:49:45.079Z,102412.55
2022-10-17T02:52:17.995Z,102413.22
2022-10-17T02:54:54.933Z,102411.30
2022-10-17T02:57:31.342Z,102413.38
2022-10-17T03:00:02.294Z,102421.04
2022-10-17T03:02:49.181Z,102420.84
2022-10-17T03:05:20.690Z,102430.73
2022-10-17T03:07:48.826Z,102438.21
2022-10-17T03:10:17.501Z,102441.52
2022-10-17T03:12:45.880Z,102446.77
2022-10-17T03:15:14.464Z,102445.14
2022-10-17T03:17:42.916Z,102446.17
2022-10-17T03:20:11.640Z,102458.87
2022-10-17T03:22:39.592Z,102464.23
2022-10-17T03:25:08.368Z,102465.09
2022-10-17T03:27:36.862Z,102458.44
2022-10-17T03:30:06.057Z,102459.98
2022-10-17T03:32:34.666Z,102463.27
2022-10-17T03:35:02.856Z,102462.90
2022-10-17T03:37:31.402Z,102461.65
2022-10-17T03:39:59.975Z,102462.68
2022-10-17T03:42:28.048Z,102461.95
2022-10-17T03:44:55.912Z,102476.38
2022-10-17T03:47:23.882Z,102471.09
2022-10-17T03:49:53.999Z,102468.59
2022-10-17T03:52:22.138Z,102464.81
2022-10-17T03:54:51.473Z,102473.67
2022-10-17T03:57:20.058Z,102473.84
2022-10-17T03:59:48.027Z,102477.15
2022-10-17T04:02:18.346Z,102471.05
2022-10-17T04:04:46.420Z,102468.46
2022-10-17T04:07:14.501Z,102468.10
2022-10-17T04:09:44.422Z,102476.45
2022-10-17T04:12:15.344Z,102479.21
2022-10-17T04:14:43.924Z,102486.35
2022-10-17T04:17:11.889Z,102491.55
2022-10-17T04:19:40.071Z,102487.31
2022-10-17T04:22:08.750Z,102483.60
2022-10-17T04:24:38.565Z,102485.83
2022-10-17T04:27:11.554Z,102486.98
2022-10-17T04:29:42.178Z,102492.88
2022-10-17T04:32:15.572Z,102493.02
2022-10-17T04:34:51.218Z,102492.13
2022-10-17T04:37:20.413Z,102498.96
2022-10-17T04:39:48.997Z,102509.61
2022-10-17T04:42:17.170Z,102502.46
2022-10-17T04:44:45.175Z,102497.58
2022-10-17T04:47:14.541Z,102495.83
2022-10-17T04:49:43.025Z,102492.15
2022-10-17T04:52:11.709Z,102482.38
2022-10-17T04:54:49.301Z,102479.75
2022-10-17T04:57:20.109Z,102478.15
2022-10-17T04:59:54.949Z,102486.88
2022-10-17T05:02:43.208Z,102490.33
2022-10-17T05:05:11.176Z,102502.20
2022-10-17T05:07:42.233Z,102514.77
2022-10-17T05:10:20.019Z,102524.99
2022-10-17T05:12:50.391Z,102524.11
2022-10-17T05:15:19.225Z,102518.90
2022-10-17T05:17:47.405Z,102520.65
2022-10-17T05:20:15.802Z,102514.20
2022-10-17T05:22:44.395Z,102508.46
2022-10-17T05:25:12.641Z,102515.96
2022-10-17T05:27:40.611Z,102521.41
2022-10-17T05:30:10.418Z,102525.33
2022-10-17T05:32:38.971Z,102525.74
2022-10-17T05:35:07.428Z,102531.23
2022-10-17T05:37:37.092Z,102535.67
2022-10-17T05:40:06.454Z,102538.87
2022-10-17T05:42:34.426Z,102539.50
2022-10-17T05:45:03.856Z,102530.17
2022-10-17T05:47:32.283Z,102533.41
2022-10-17T05:50:00.611Z,102539.30
2022-10-17T05:52:33.457Z,102533.35
2022-10-17T05:55:11.190Z,102531.72
2022-10-17T05:57:40.291Z,102534.67
2022-10-17T06:00:12.557Z,102536.14
2022-10-17T06:02:46.224Z,102538.25
2022-10-17T06:05:16.457Z,102544.19
2022-10-17T06:07:44.961Z,102549.78
2022-10-17T06:10:16.616Z,102556.23
2022-10-17T06:12:45.539Z,102550.59
2022-10-17T06:15:13.648Z,102558.78
2022-10-17T06:17:44.104Z,102553.05
2022-10-17T06:20:12.382Z,102548.56
2022-10-17T06:22:40.309Z,102558.36
2022-10-17T06:25:14.051Z,102570.29
2022-10-17T06:27:43.102Z,102575.80
2022-10-17T06:30:12.240Z,102576.91
2022-10-17T06:32:40.825Z,102569.23
2022-10-17T06:35:09.469Z,102566.79
2022-10-17T06:37:38.221Z,102570.30
2022-10-17T06:40:12.335Z,102578.18
2022-10-17T06:42:41.770Z,102586.40
2022-10-17T06:45:25.240Z,102582.31
2022-10-17T06:48:08.881Z,102578.76
2022-10-17T06:50:53.475Z,102582.38
2022-10-17T06:53:25.297Z,102578.98
2022-10-17T06:56:16.298Z,102572.58
2022-10-17T06:58:54.816Z,102580.39
2022-10-17T07:01:36.712Z,102581.14
2022-10-17T07:04:05.809Z,102582.27
2022-10-17T07:06:35.036Z,102587.06
2022-10-17T07:09:09.701Z,102594.51
2022-10-17T07:11:38.316Z,102595.61
2022-10-17T07:14:06.275Z,102599.49
2022-10-17T07:16:35.369Z,102604.42
2022-10-17T07:19:13.679Z,102606.91
2022-10-17T07:21:41.649Z,102604.98
2022-10-17T07:24:11.773Z,102604.80
2022-10-17T07:26:42.704Z,102613.56
2022-10-17T07:29:11.797Z,102614.80
2022-10-17T07:31:55.638Z,102614.11
2022-10-17T07:34:27.707Z,102609.23
2022-10-17T07:36:55.902Z,102610.83
2022-10-17T07:39:24.257Z,102614.55
2022-10-17T07:41:52.388Z,102613.36
2022-10-17T07:44:20.395Z,102607.11
2022-10-17T07:46:50.943Z,102613.63
2022-10-17T07:49:19.400Z,102602.61
2022-10-17T07:51:48.688Z,102597.39
2022-10-17T07:54:16.670Z,102597.96
2022-10-17T07:56:50.871Z,102600.10
2022-10-17T07:59:19.467Z,102609.61
2022-10-17T08:01:47.608Z,102611.21
2022-10-17T08:04:17.021Z,102617.73
2022-10-17T08:06:45.220Z,102617.27
2022-10-17T08:09:13.289Z,102619.20
2022-10-17T08:11:44.114Z,102622.04
2022-10-17T08:14:13.397Z,102615.20
2022-10-17T08:16:41.495Z,102612.40
2022-10-17T08:19:11.614Z,102613.80
2022-10-17T08:21:39.780Z,102612.73
2022-10-17T08:24:07.666Z,102606.62
2022-10-17T08:26:39.255Z,102605.95
2022-10-17T08:29:15.256Z,102605.44
2022-10-17T08:31:47.476Z,102609.52
2022-10-17T08:34:16.416Z,102607.08
2022-10-17T08:36:44.312Z,102606.77
2022-10-17T08:39:12.353Z,102599.77
2022-10-17T08:41:54.761Z,102595.55
2022-10-17T08:44:36.250Z,102593.81
2022-10-17T08:47:11.585Z,102590.48
2022-10-17T08:49:49.081Z,102593.82
2022-10-17T08:52:41.003Z,102593.66
2022-10-17T08:55:28.122Z,102594.53
2022-10-17T08:57:56.060Z,102593.83
2022-10-17T09:00:25.489Z,102592.95
2022-10-17T09:03:08.663Z,102591.20
2022-10-17T09:05:39.553Z,102592.95
2022-10-17T09:08:13.560Z,102588.73
2022-10-17T09:11:07.576Z,102579.23
2022-10-17T09:13:51.276Z,102576.95
2022-10-17T09:16:47.817Z,102577.30
2022-10-17T09:19:31.039Z,102577.30
2022-10-17T09:22:03.311Z,102581.04
2022-10-17T09:24:49.348Z,102582.13
2022-10-17T09:27:57.841Z,102584.94
2022-10-17T09:30:48.211Z,102575.45
2022-10-17T09:33:28.368Z,102575.27
2022-10-17T09:36:17.912Z,102563.46
2022-10-17T09:38:53.974Z,102557.10
2022-10-17T09:41:44.128Z,102548.81
2022-10-17T09:44:20.243Z,102548.59
2022-10-17T09:46:56.511Z,102557.52
2022-10-17T09:49:36.888Z,102561.52
2022-10-17T09:52:11.082Z,102560.58
2022-10-17T09:54:44.478Z,102555.61
2022-10-17T09:57:13.798Z,102555.71
2022-10-17T09:59:48.100Z,102558.13
2022-10-17T10:02:17.802Z,102559.48
2022-10-17T10:05:07.098Z,102552.77
2022-10-17T10:07:39.578Z,102552.41
2022-10-17T10:10:24.403Z,102551.15
2022-10-17T10:13:14.965Z,102545.66
2022-10-17T10:15:45.750Z,102542.99
2022-10-17T10:21:17.517Z,102545.77
2022-10-17T10:24:03.529Z,102544.88
2022-10-17T10:26:45.127Z,102545.58
2022-10-17T10:29:34.384Z,102541.14
2022-10-17T10:32:24.136Z,102540.77
2022-10-17T10:35:09.410Z,102542.86
2022-10-17T10:37:44.014Z,102544.05
2022-10-17T10:40:37.599Z,102539.59
2022-10-17T10:43:06.779Z,102537.78
2022-10-17T10:45:52.814Z,102534.92
2022-10-17T10:48:30.704Z,102537.88
2022-10-17T10:51:37.773Z,102532.00
2022-10-17T10:54:13.224Z,102529.67
2022-10-17T10:56:44.559Z,102526.59
2022-10-17T10:59:27.518Z,102530.54
2022-10-17T11:02:19.100Z,102528.46
2022-10-17T11:05:11.491Z,102523.59
2022-10-17T11:07:47.188Z,102524.34
2022-10-17T11:10:30.209Z,102518.73
2022-10-17T11:13:06.780Z,102510.79
2022-10-17T11:15:47.749Z,102505.33
2022-10-17T11:18:22.429Z,102497.80
2022-10-17T11:21:23.606Z,102495.17
2022-10-17T11:24:09.068Z,102499.02
2022-10-17T11:26:45.365Z,102498.26
2022-10-17T11:29:13.937Z,102493.22
2022-10-17T11:31:55.941Z,102486.08
2022-10-17T11:34:29.809Z,102484.24
2022-10-17T11:37:12.636Z,102481.55
2022-10-17T11:40:02.367Z,102478.65
2022-10-17T11:42:40.793Z,102465.70
2022-10-17T11:45:14.522Z,102462.88
2022-10-17T11:47:50.517Z,102458.20
2022-10-17T11:53:16.269Z,102448.56
2022-10-17T11:55:45.839Z,102451.48
2022-10-17T11:58:39.690Z,102443.98
2022-10-17T12:01:10.725Z,102439.92
2022-10-17T12:03:57.672Z,102431.36
2022-10-17T12:06:39.633Z,102432.73
2022-10-17T12:09:16.574Z,102423.81
2022-10-17T12:11:55.482Z,102420.38
2022-10-17T12:14:38.364Z,102418.89
2022-10-17T12:17:39.023Z,102423.80
2022-10-17T12:20:25.203Z,102422.70
2022-10-17T12:22:54.531Z,102419.98
2022-10-17T12:25:23.966Z,102420.39
2022-10-17T12:28:02.670Z,102421.88
2022-10-17T12:30:30.792Z,102420.44
2022-10-17T12:33:22.330Z,102419.83
2022-10-17T12:35:51.620Z,102416.39
2022-10-17T12:38:21.149Z,102410.63
2022-10-17T12:40:54.477Z,102418.15
2022-10-17T12:43:28.143Z,102415.91
2022-10-17T12:46:00.871Z,102419.52
2022-10-17T12:48:34.852Z,102417.98
2022-10-17T12:51:34.277Z,102412.94
2022-10-17T12:54:00.592Z,102410.95
2022-10-17T12:56:36.571Z,102402.92
2022-10-17T12:59:28.053Z,102399.64
2022-10-17T13:02:00.263Z,102400.45
2022-10-17T13:04:30.746Z,102396.08
2022-10-17T13:07:01.276Z,102396.00
2022-10-17T13:09:37.585Z,102394.70
2022-10-17T13:12:12.458Z,102396.27
2022-10-17T13:14:42.987Z,102393.95
2022-10-17T13:17:27.626Z,102389.32
2022-10-17T13:19:56.451Z,102383.48
2022-10-17T13:22:28.661Z,102372.69
2022-10-17T13:25:27.081Z,102366.49
2022-10-17T13:28:07.644Z,102357.56
2022-10-17T13:30:36.822Z,102355.30
2022-10-17T13:33:19.407Z,102348.77
2022-10-17T13:35:59.982Z,102340.48
2022-10-17T13:38:32.611Z,102335.95
2022-10-17T13:41:23.249Z,102332.98
2022-10-17T13:43:51.365Z,102334.17
2022-10-17T13:46:40.168Z,102330.77
2022-10-17T13:49:37.167Z,102328.84
2022-10-17T13:52:07.802Z,102325.33
2022-10-17T13:54:41.476Z,102318.05
2022-10-17T13:57:25.690Z,102313.42
2022-10-17T14:00:19.528Z,102315.88
2022-10-17T14:02:48.595Z,102313.25
2022-10-17T14:05:19.451Z,102316.78
2022-10-17T14:10:44.273Z,102320.80
2022-10-17T14:13:25.342Z,102314.55
2022-10-17T14:15:56.390Z,102312.27
2022-10-17T14:18:35.697Z,102303.63
2022-10-17T14:24:17.028Z,102300.56
2022-10-17T14:26:50.496Z,102299.44
2022-10-17T14:29:22.154Z,102300.13
2022-10-17T14:31:53.719Z,102287.92
2022-10-17T14:34:27.961Z,102284.77
2022-10-17T14:36:56.062Z,102285.02
2022-10-17T14:39:26.533Z,102282.38
2022-10-17T14:41:54.941Z,102279.77
2022-10-17T14:44:29.534Z,102284.98
2022-10-17T14:47:30.730Z,102286.47
2022-10-17T14:50:28.242Z,102284.61
2022-10-17T14:53:22.424Z,102284.40
2022-10-17T14:56:02.566Z,102281.30
2022-10-17T14:58:33.463Z,102274.11
2022-10-17T15:01:02.522Z,102271.50
2022-10-17T15:03:30.605Z,102274.69
2022-10-17T15:05:59.575Z,102270.66
2022-10-17T15:08:27.642Z,102274.96
2022-10-17T15:10:55.613Z,102278.90
2022-10-17T15:13:28.267Z,102277.01
2022-10-17T15:15:57.587Z,102284.35
2022-10-17T15:18:25.553Z,102283.71
2022-10-17T15:21:04.487Z,102282.73
2022-10-17T15:23:34.811Z,102276.83
2022-10-17T15:26:02.789Z,102276.40
2022-10-17T15:28:30.771Z,102275.79
2022-10-17T15:30:58.708Z,102279.18
2022-10-17T15:33:26.990Z,102277.14
2022-10-17T15:35:55.152Z,102278.23
2022-10-17T15:38:23.130Z,102276.68
2022-10-17T15:40:52.218Z,102271.63
2022-10-17T15:43:20.287Z,102269.52
2022-10-17T15:45:48.874Z,102266.72
2022-10-17T15:48:23.501Z,102264.62
2022-10-17T15:50:51.469Z,102262.92
2022-10-17T15:53:19.744Z,102260.50
2022-10-17T15:55:51.091Z,102260.38
2022-10-17T15:58:19.874Z,102261.66
2022-10-17T16:00:48.887Z,102262.95
2022-10-17T16:03:16.948Z,102260.53
2022-10-17T16:05:45.009Z,102265.38
2022-10-17T16:08:12.977Z,102260.16
2022-10-17T16:10:41.169Z,102261.46
2022-10-17T16:13:17.442Z,102258.88
2022-10-17T16:15:45.495Z,102260.93
2022-10-17T16:18:13.653Z,102261.37
2022-10-17T16:20:41.929Z,102261.41
2022-10-17T16:23:12.765Z,102262.91
2022-10-17T16:25:41.318Z,102258.01
2022-10-17T16:28:11.900Z,102255.45
2022-10-17T16:30:44.997Z,102262.04
2022-10-17T16:33:13.492Z,102260.31
2022-10-17T16:35:41.628Z,102257.67
2022-10-17T16:38:09.585Z,102254.05
2022-10-17T16:40:39.690Z,102250.71
2022-10-17T16:43:11.134Z,102249.52
2022-10-17T16:45:39.425Z,102250.95
2022-10-17T16:48:07.414Z,102245.67
2022-10-17T16:50:39.204Z,102239.73
2022-10-17T16:53:07.331Z,102239.98
2022-10-17T16:55:35.394Z,102232.27
2022-10-17T16:58:03.361Z,102231.98
2022-10-17T17:00:31.370Z,102234.00
2022-10-17T17:02:59.402Z,102233.66
2022-10-17T17:05:27.471Z,102230.52
2022-10-17T17:07:56.261Z,102233.90
2022-10-17T17:10:24.335Z,102232.70
2022-10-17T17:12:52.304Z,102233.45
2022-10-17T17:15:20.285Z,102234.34
2022-10-17T17:17:52.441Z,102234.00
2022-10-17T17:20:22.999Z,102231.21
2022-10-17T17:22:52.520Z,102233.87
2022-10-17T17:25:22.547Z,102235.48
2022-10-17T17:27:50.764Z,102234.09
2022-10-17T17:30:18.877Z,102228.47
2022-10-17T17:32:46.899Z,102225.70
2022-10-17T17:35:14.969Z,102222.20
2022-10-17T17:37:42.939Z,102215.54
2022-10-17T17:40:11.723Z,102211.16
2022-10-17T17:42:39.743Z,102202.20
2022-10-17T17:45:08.917Z,102204.16
2022-10-17T17:47:36.858Z,102201.90
2022-10-17T17:50:05.518Z,102191.66
2022-10-17T17:52:33.571Z,102194.85
2022-10-17T17:55:01.666Z,102190.44
2022-10-17T17:57:30.282Z,102192.19
2022-10-17T17:59:58.299Z,102192.38
2022-10-17T18:02:26.303Z,102189.57
2022-10-17T18:04:54.274Z,102187.61
2022-10-17T18:07:23.341Z,102186.91
2022-10-17T18:09:51.849Z,102184.78
2022-10-17T18:12:19.815Z,102181.29
2022-10-17T18:14:48.265Z,102183.78
2022-10-17T18:17:16.371Z,102186.09
2022-10-17T18:19:44.331Z,102180.29
2022-10-17T18:22:12.400Z,102179.77
2022-10-17T18:24:41.059Z,102181.02
2022-10-17T18:27:08.957Z,102181.02
2022-10-17T18:29:36.922Z,102174.14
2022-10-17T18:32:05.588Z,102175.41
2022-10-17T18:34:33.785Z,102169.74
2022-10-17T18:37:02.784Z,102165.52
2022-10-17T18:39:31.151Z,102155.83
2022-10-17T18:41:59.024Z,102154.94
2022-10-17T18:44:27.495Z,102148.58
2022-10-17T18:46:58.626Z,102144.70
2022-10-17T18:49:29.683Z,102141.51
2022-10-17T18:51:57.704Z,102140.78
2022-10-17T18:54:25.718Z,102140.95
2022-10-17T18:56:54.816Z,102138.45
2022-10-17T18:59:23.800Z,102137.21
2022-10-17T19:01:52.190Z,102134.02
2022-10-17T19:04:20.353Z,102141.20
2022-10-17T19:06:48.521Z,102134.83
2022-10-17T19:09:16.700Z,102136.41
2022-10-17T19:11:44.770Z,102134.10
2022-10-17T19:14:13.619Z,102128.60
2022-10-17T19:16:45.417Z,102123.31
2022-10-17T19:19:20.657Z,102116.42
2022-10-17T19:21:50.673Z,102115.04
2022-10-17T19:24:24.542Z,102114.85
2022-10-17T19:26:56.133Z,102115.35
2022-10-17T19:29:27.282Z,102119.39
2022-10-17T19:34:24.544Z,102115.35
2022-10-17T19:36:52.512Z,102120.61
2022-10-17T19:39:22.987Z,102121.13
2022-10-17T19:41:51.109Z,102120.61
2022-10-17T19:44:19.381Z,102121.47
2022-10-17T19:46:49.411Z,102120.04
2022-10-17T19:49:18.208Z,102123.21
2022-10-17T19:51:46.388Z,102121.05
2022-10-17T19:54:16.683Z,102115.73
2022-10-17T19:56:44.647Z,102113.77
2022-10-17T19:59:16.342Z,102112.52
2022-10-17T20:01:44.739Z,102113.20
2022-10-17T20:04:13.576Z,102115.13
2022-10-17T20:06:42.122Z,102118.82
2022-10-17T20:09:15.716Z,102117.76
2022-10-17T20:11:45.517Z,102120.06
2022-10-17T20:14:13.738Z,102116.35
2022-10-17T20:16:44.934Z,102116.02
2022-10-17T20:19:13.888Z,102116.57
2022-10-17T20:21:42.854Z,102117.48
2022-10-17T20:24:14.729Z,102116.10
2022-10-17T20:26:43.427Z,102111.89
2022-10-17T20:29:15.477Z,102112.61
2022-10-17T20:31:45.694Z,102114.05
2022-10-17T20:34:15.707Z,102113.34
2022-10-17T20:36:44.150Z,102120.41
2022-10-17T20:39:14.620Z,102110.69
2022-10-17T20:41:43.494Z,102115.84
2022-10-17T20:44:12.704Z,102117.79
2022-10-17T20:46:45.347Z,102116.94
2022-10-17T20:49:25.898Z,102114.17
2022-10-17T20:51:53.938Z,102115.61
2022-10-17T20:54:22.577Z,102118.14
2022-10-17T20:56:50.592Z,102114.12
2022-10-17T20:59:18.944Z,102112.77
2022-10-17T21:01:47.900Z,102109.11
2022-10-17T21:04:44.113Z,102113.38
2022-10-17T21:07:03.997Z,102109.73
2022-10-17T21:09:32.015Z,102108.20
2022-10-17T21:14:36.551Z,102105.95
2022-10-17T21:17:05.503Z,102102.05
2022-10-17T21:19:34.083Z,102105.05
2022-10-17T21:22:02.100Z,102107.67
2022-10-17T21:24:30.999Z,102108.35
2022-10-17T21:26:59.260Z,102112.55
2022-10-17T21:29:27.329Z,102108.46
2022-10-17T21:31:55.379Z,102107.04
2022-10-17T21:34:25.194Z,102107.91
2022-10-17T21:36:53.730Z,102101.72
2022-10-17T21:39:24.272Z,102101.35
2022-10-17T21:41:53.321Z,102101.52
2022-10-17T21:44:24.971Z,102101.34
2022-10-17T21:46:54.473Z,102104.53
2022-10-17T21:49:25.205Z,102098.19
2022-10-17T21:51:53.912Z,102101.72
2022-10-17T21:54:23.673Z,102102.41
2022-10-17T21:56:51.975Z,102097.30
2022-10-17T21:59:19.944Z,102102.96
2022-10-17T22:01:48.007Z,102098.73
2022-10-17T22:04:18.152Z,102101.92
2022-10-17T22:06:51.293Z,102102.48
2022-10-17T22:09:24.697Z,102099.33
2022-10-17T22:11:55.765Z,102104.48
2022-10-17T22:14:25.573Z,102105.72
2022-10-17T22:16:54.048Z,102106.80
2022-10-17T22:19:25.501Z,102106.46
2022-10-17T22:21:54.357Z,102109.83
2022-10-17T22:24:23.430Z,102104.02
2022-10-17T22:26:51.964Z,102102.98
2022-10-17T22:29:20.241Z,102102.27
2022-10-17T22:31:48.214Z,102103.34
2022-10-17T22:34:17.612Z,102104.41
2022-10-17T22:36:47.865Z,102105.98
2022-10-17T22:39:16.004Z,102104.43
2022-10-17T22:41:44.178Z,102107.63
2022-10-17T22:44:12.148Z,102113.66
2022-10-17T22:46:40.024Z,102112.29
2022-10-17T22:49:07.980Z,102112.14
2022-10-17T22:51:35.960Z,102114.30
2022-10-17T22:54:04.298Z,102112.74
2022-10-17T22:56:32.402Z,102111.02
2022-10-17T22:59:00.468Z,102111.60
2022-10-17T23:01:28.505Z,102107.06
2022-10-17T23:03:56.508Z,102106.23
2022-10-17T23:06:24.684Z,102104.88
2022-10-17T23:08:52.785Z,102106.35
2022-10-17T23:11:21.115Z,102106.05
2022-10-17T23:13:49.302Z,102108.58
2022-10-17T23:16:17.560Z,102103.15
2022-10-17T23:18:45.769Z,102098.98
2022-10-17T23:21:13.822Z,102103.78
2022-10-17T23:23:41.918Z,102107.54
2022-10-17T23:26:12.847Z,102107.77
2022-10-17T23:28:42.358Z,102116.27
2022-10-17T23:31:17.263Z,102113.69
2022-10-17T23:33:47.189Z,102104.22
2022-10-17T23:36:17.256Z,102105.49
2022-10-17T23:38:47.003Z,102106.77
2022-10-17T23:41:15.387Z,102103.27
2022-10-17T23:43:44.282Z,102105.41
2022-10-17T23:46:12.683Z,102106.85
2022-10-17T23:48:41.217Z,102107.06
2022-10-17T23:51:10.735Z,102105.51
2022-10-17T23:53:40.140Z,102110.81
2022-10-17T23:56:10.321Z,102115.23
2022-10-17T23:58:39.453Z,102118.78
